Time;durP1;ratioP1;P1;durP2;ratioP2;P2;SDS_P1;SDS_P2;PMS_P1;PMS_P2;Temp;Humidity;BMP_temperature;BMP_pressure;BME280_temperature;BME280_humidity;BME280_pressure;Samples;Min_cycle;Max_cycle;Signal;HPM_P1;HPM_P2
2023/10/23 00:00:49;;;;;;;10.63;8.38;;;7.50;99.90;;;;;;6145258;23;20013;-80
2023/10/23 00:03:15;;;;;;;10.35;8.90;;;7.40;99.90;;;;;;6121355;23;20024;-80
2023/10/23 00:05:41;;;;;;;14.43;8.02;;;7.40;99.90;;;;;;6144838;23;20013;-80
2023/10/23 00:08:06;;;;;;;11.95;8.38;;;7.40;99.90;;;;;;6146506;23;20017;-80
2023/10/23 00:10:32;;;;;;;9.60;7.85;;;7.40;99.90;;;;;;6142473;23;20025;-80
2023/10/23 00:12:58;;;;;;;11.52;8.02;;;7.40;99.90;;;;;;6145359;23;20127;-80
2023/10/23 00:15:24;;;;;;;10.63;7.65;;;7.40;99.90;;;;;;6145235;23;20048;-80
2023/10/23 00:17:49;;;;;;;9.10;7.57;;;7.40;99.90;;;;;;6146317;23;20013;-80
2023/10/23 00:20:15;;;;;;;11.30;7.85;;;7.30;99.90;;;;;;6145301;23;20636;-80
2023/10/23 00:22:41;;;;;;;11.10;8.65;;;7.30;99.90;;;;;;6146029;23;20024;-80
2023/10/23 00:25:07;;;;;;;11.70;8.85;;;7.20;99.90;;;;;;6142899;23;20017;-80
2023/10/23 00:27:32;;;;;;;12.05;9.15;;;7.20;99.90;;;;;;6145388;23;20110;-80
2023/10/23 00:29:59;;;;;;;12.43;9.40;;;7.30;99.90;;;;;;6144680;23;20020;-80
2023/10/23 00:32:25;;;;;;;12.63;8.90;;;7.30;99.90;;;;;;6145097;23;20679;-80
2023/10/23 00:34:51;;;;;;;13.82;8.93;;;7.20;99.90;;;;;;6143591;23;20020;-80
2023/10/23 00:37:17;;;;;;;12.63;10.35;;;7.30;99.90;;;;;;6143721;23;20020;-80
2023/10/23 00:39:43;;;;;;;22.27;10.27;;;7.20;99.90;;;;;;6116655;23;20195;-80
2023/10/23 00:42:08;;;;;;;15.45;10.38;;;7.30;99.90;;;;;;6143697;23;20010;-80
2023/10/23 00:44:34;;;;;;;16.98;11.32;;;7.30;99.90;;;;;;6120632;23;20039;-80
2023/10/23 00:47:00;;;;;;;17.08;10.77;;;7.20;99.90;;;;;;6145747;23;20017;-80
2023/10/23 00:49:26;;;;;;;15.98;11.25;;;7.30;99.90;;;;;;6120873;23;20047;-80
2023/10/23 00:51:51;;;;;;;19.67;11.98;;;7.30;99.90;;;;;;6144779;23;20232;-80
2023/10/23 00:54:19;;;;;;;14.45;11.73;;;7.20;99.90;;;;;;6120992;23;20013;-80
2023/10/23 00:56:45;;;;;;;14.75;10.88;;;7.30;99.90;;;;;;6141576;23;20097;-80
2023/10/23 00:59:11;;;;;;;13.75;11.23;;;7.30;99.90;;;;;;6119804;23;20470;-80
2023/10/23 01:01:38;;;;;;;19.40;11.98;;;7.30;99.90;;;;;;6143463;23;20045;-81
2023/10/23 01:04:05;;;;;;;16.10;11.10;;;7.30;99.90;;;;;;6144831;23;20017;-80
2023/10/23 01:06:31;;;;;;;15.70;11.68;;;7.30;99.90;;;;;;6118934;23;20017;-80
2023/10/23 01:08:57;;;;;;;16.65;12.25;;;7.20;99.90;;;;;;6119890;23;20083;-80
2023/10/23 01:11:23;;;;;;;19.25;12.77;;;7.30;99.90;;;;;;6140134;23;20092;-80
2023/10/23 01:13:49;;;;;;;18.45;13.55;;;7.30;99.90;;;;;;6119674;23;20071;-81
2023/10/23 01:16:15;;;;;;;21.10;12.88;;;7.30;99.90;;;;;;6144146;23;20104;-80
2023/10/23 01:18:41;;;;;;;21.85;13.77;;;7.30;99.90;;;;;;6119839;23;20375;-81
2023/10/23 01:21:06;;;;;;;19.50;13.02;;;7.30;99.90;;;;;;6119236;23;20108;-80
2023/10/23 01:23:35;;;;;;;16.77;12.27;;;7.30;99.90;;;;;;6119840;23;20601;-80
2023/10/23 01:26:01;;;;;;;17.02;12.05;;;7.30;99.90;;;;;;6145172;23;20013;-80
2023/10/23 01:28:27;;;;;;;19.60;12.68;;;7.20;99.90;;;;;;6122713;23;20473;-81
2023/10/23 01:30:53;;;;;;;21.40;13.35;;;7.20;99.90;;;;;;6148036;23;20104;-81
2023/10/23 01:33:19;;;;;;;19.70;13.68;;;7.20;99.90;;;;;;6123837;23;20013;-81
2023/10/23 01:35:44;;;;;;;18.83;13.18;;;7.20;99.90;;;;;;6122897;23;20020;-80
2023/10/23 01:38:14;;;;;;;20.48;13.88;;;7.20;99.90;;;;;;6148419;23;20438;-81
2023/10/23 01:40:39;;;;;;;17.70;12.75;;;7.20;99.90;;;;;;6120623;23;20075;-80
2023/10/23 01:43:05;;;;;;;18.98;13.02;;;7.20;99.90;;;;;;6148548;23;20009;-80
2023/10/23 01:45:31;;;;;;;20.58;13.25;;;7.20;99.90;;;;;;6147432;23;20381;-80
2023/10/23 01:47:56;;;;;;;16.30;12.45;;;7.20;99.90;;;;;;6124205;23;20009;-80
2023/10/23 01:50:24;;;;;;;20.23;13.57;;;7.10;99.90;;;;;;6148264;23;20336;-80
2023/10/23 01:52:50;;;;;;;18.10;12.75;;;7.10;99.90;;;;;;6123638;23;20024;-80
2023/10/23 01:55:16;;;;;;;19.55;13.60;;;7.10;99.90;;;;;;6145950;23;20039;-80
2023/10/23 01:57:41;;;;;;;16.88;13.43;;;7.10;99.90;;;;;;6147951;23;20446;-80
2023/10/23 02:00:10;;;;;;;18.88;13.18;;;7.10;99.90;;;;;;6147964;23;20119;-81
2023/10/23 02:02:36;;;;;;;24.65;14.35;;;7.00;99.90;;;;;;6123847;23;20008;-81
2023/10/23 02:05:03;;;;;;;15.52;12.77;;;7.00;99.90;;;;;;6124031;23;20200;-80
2023/10/23 02:07:28;;;;;;;286.67;25.70;;;7.00;99.90;;;;;;6148561;23;20383;-80
2023/10/23 02:09:58;;;;;;;18.15;13.52;;;7.10;99.90;;;;;;6121954;23;20391;-80
2023/10/23 02:12:24;;;;;;;17.17;14.30;;;7.00;99.90;;;;;;6123910;23;20163;-80
2023/10/23 02:14:52;;;;;;;15.70;12.75;;;7.00;99.90;;;;;;6148162;23;20434;-80
2023/10/23 02:17:21;;;;;;;19.95;13.50;;;6.90;99.90;;;;;;6124409;23;20099;-80
2023/10/23 02:19:47;;;;;;;18.63;14.18;;;6.90;99.90;;;;;;6148813;23;20092;-80
2023/10/23 02:22:13;;;;;;;19.88;14.18;;;6.90;99.90;;;;;;6124338;23;20436;-80
2023/10/23 02:24:39;;;;;;;22.63;14.80;;;6.90;99.90;;;;;;6122921;23;20032;-80
2023/10/23 02:27:05;;;;;;;26.10;16.08;;;6.90;99.90;;;;;;6123728;23;20284;-80
2023/10/23 02:29:31;;;;;;;25.95;15.25;;;6.90;99.90;;;;;;6124583;23;20020;-81
2023/10/23 02:31:57;;;;;;;21.05;15.18;;;6.80;99.90;;;;;;6123642;23;20019;-80
2023/10/23 02:34:22;;;;;;;17.30;14.38;;;6.90;99.90;;;;;;6124138;23;20454;-81
2023/10/23 02:36:48;;;;;;;16.13;13.40;;;6.90;99.90;;;;;;6121625;23;20143;-80
2023/10/23 02:39:14;;;;;;;20.42;14.98;;;6.80;99.90;;;;;;6122745;23;20163;-80
2023/10/23 02:41:40;;;;;;;20.73;14.77;;;6.70;99.90;;;;;;6144228;23;20108;-80
2023/10/23 02:44:06;;;;;;;18.58;14.30;;;6.80;99.90;;;;;;6122230;23;20044;-80
2023/10/23 02:46:38;;;;;;;18.27;12.98;;;6.70;99.90;;;;;;6121400;23;20178;-80
2023/10/23 02:49:04;;;;;;;13.98;11.55;;;6.70;99.90;;;;;;6122868;23;20703;-80
2023/10/23 02:51:30;;;;;;;13.23;11.10;;;6.60;99.90;;;;;;6121431;23;20028;-80
2023/10/23 02:53:56;;;;;;;12.13;10.82;;;6.60;99.90;;;;;;6122308;23;20534;-80
2023/10/23 02:56:21;;;;;;;11.75;10.55;;;6.60;99.90;;;;;;6143677;23;20029;-80
2023/10/23 02:58:47;;;;;;;13.07;10.98;;;6.40;99.90;;;;;;6122404;23;20091;-80
2023/10/23 03:01:18;;;;;;;19.67;13.75;;;6.50;99.90;;;;;;6145982;23;20020;-80
2023/10/23 03:03:44;;;;;;;15.60;12.43;;;6.40;99.90;;;;;;6122033;23;20374;-80
2023/10/23 03:06:10;;;;;;;18.02;12.32;;;6.40;99.90;;;;;;6120409;23;20013;-80
2023/10/23 03:08:36;;;;;;;14.90;12.32;;;6.40;99.90;;;;;;6122032;23;20450;-80
2023/10/23 03:11:01;;;;;;;15.52;12.07;;;6.40;99.90;;;;;;6118941;23;20091;-80
2023/10/23 03:13:27;;;;;;;16.08;11.45;;;6.40;99.90;;;;;;6145920;23;20017;-81
2023/10/23 03:15:53;;;;;;;16.60;12.95;;;6.40;99.90;;;;;;6145443;23;20021;-80
2023/10/23 03:18:18;;;;;;;18.08;12.80;;;6.40;99.90;;;;;;6146648;23;20048;-80
2023/10/23 03:20:44;;;;;;;15.77;12.70;;;6.40;99.90;;;;;;6143443;23;20017;-81
2023/10/23 03:23:10;;;;;;;18.80;13.60;;;6.40;99.90;;;;;;6146564;23;20339;-80
2023/10/23 03:25:35;;;;;;;20.52;14.93;;;6.50;99.90;;;;;;6143444;23;20171;-80
2023/10/23 03:28:01;;;;;;;16.80;13.90;;;6.50;99.90;;;;;;6121905;23;20076;-80
2023/10/23 03:30:27;;;;;;;21.23;14.88;;;6.40;99.90;;;;;;6145689;23;20398;-80
2023/10/23 03:32:52;;;;;;;21.95;15.10;;;6.50;99.90;;;;;;6122265;23;20048;-80
2023/10/23 03:35:18;;;;;;;17.38;13.50;;;6.40;99.90;;;;;;6121308;23;20025;-80
2023/10/23 03:37:44;;;;;;;14.25;12.40;;;6.40;99.90;;;;;;6121869;23;20095;-80
2023/10/23 03:40:10;;;;;;;15.07;12.30;;;6.30;99.90;;;;;;6141948;23;20050;-80
2023/10/23 03:42:36;;;;;;;16.38;12.35;;;6.30;99.90;;;;;;6119513;23;20013;-80
2023/10/23 03:45:05;;;;;;;18.38;13.68;;;6.30;99.90;;;;;;6120905;23;20009;-80
2023/10/23 03:47:31;;;;;;;18.33;13.13;;;6.20;99.90;;;;;;6121154;23;20009;-80
2023/10/23 03:49:56;;;;;;;16.35;12.93;;;6.30;99.90;;;;;;6120166;23;20027;-80
2023/10/23 03:52:22;;;;;;;15.32;11.93;;;6.20;99.90;;;;;;6146206;23;20466;-80
2023/10/23 03:54:48;;;;;;;16.13;12.60;;;6.20;99.90;;;;;;6118801;23;20098;-80
2023/10/23 03:57:13;;;;;;;20.08;12.82;;;6.20;99.90;;;;;;6120866;23;20073;-81
2023/10/23 03:59:43;;;;;;;19.33;12.88;;;6.20;99.90;;;;;;6120833;23;20024;-80
2023/10/23 04:02:08;;;;;;;17.80;13.48;;;6.20;99.90;;;;;;6145167;23;20028;-80
2023/10/23 04:04:34;;;;;;;18.63;13.70;;;6.20;99.90;;;;;;6144117;23;20009;-80
2023/10/23 04:07:00;;;;;;;22.85;15.07;;;6.30;99.90;;;;;;6119224;23;20020;-80
2023/10/23 04:09:29;;;;;;;17.23;14.05;;;6.30;99.90;;;;;;6144211;23;20045;-80
2023/10/23 04:11:55;;;;;;;20.17;14.30;;;6.30;99.90;;;;;;6118519;23;20040;-81
2023/10/23 04:14:21;;;;;;;22.98;15.63;;;6.30;99.90;;;;;;6145738;23;20028;-80
2023/10/23 04:16:47;;;;;;;19.80;14.95;;;6.30;99.90;;;;;;6121281;23;20232;-81
2023/10/23 04:19:12;;;;;;;23.83;15.93;;;6.30;99.90;;;;;;6121461;23;20017;-80
2023/10/23 04:21:41;;;;;;;22.63;15.48;;;6.40;99.90;;;;;;6120934;23;20024;-80
2023/10/23 04:24:09;;;;;;;18.85;14.90;;;6.50;99.90;;;;;;6121271;23;20064;-80
2023/10/23 04:26:35;;;;;;;21.55;15.48;;;6.50;99.90;;;;;;6118242;23;20429;-81
2023/10/23 04:29:01;;;;;;;23.35;15.80;;;6.50;99.90;;;;;;6145142;23;20437;-80
2023/10/23 04:31:27;;;;;;;17.08;14.25;;;6.60;99.90;;;;;;6119202;23;20595;-80
2023/10/23 04:33:52;;;;;;;19.38;14.63;;;6.50;99.90;;;;;;6144431;23;20013;-80
2023/10/23 04:36:19;;;;;;;20.60;14.68;;;6.40;99.90;;;;;;6119263;23;20015;-81
2023/10/23 04:38:44;;;;;;;22.77;15.40;;;6.60;99.90;;;;;;6143993;23;20013;-80
2023/10/23 04:41:10;;;;;;;20.83;15.10;;;6.50;99.90;;;;;;6140515;23;20013;-80
2023/10/23 04:43:36;;;;;;;19.85;15.75;;;6.50;99.90;;;;;;6144136;23;20032;-80
2023/10/23 04:46:01;;;;;;;20.88;14.77;;;6.40;99.90;;;;;;6118988;23;20291;-80
2023/10/23 04:48:27;;;;;;;23.25;16.30;;;6.40;99.90;;;;;;6120937;23;20009;-81
2023/10/23 04:50:59;;;;;;;20.45;14.45;;;6.30;99.90;;;;;;6120116;23;20151;-80
2023/10/23 04:53:25;;;;;;;21.52;15.68;;;6.30;99.90;;;;;;6120998;23;20024;-80
2023/10/23 04:55:51;;;;;;;22.15;15.38;;;6.30;99.90;;;;;;6140224;23;20355;-80
2023/10/23 04:58:16;;;;;;;24.00;16.83;;;6.30;99.90;;;;;;6144182;23;20055;-80
2023/10/23 05:00:42;;;;;;;28.30;18.80;;;6.20;99.90;;;;;;6143602;23;20048;-80
2023/10/23 05:03:09;;;;;;;25.42;17.02;;;6.30;99.90;;;;;;6143277;23;20091;-80
2023/10/23 05:05:38;;;;;;;28.65;19.27;;;6.30;99.90;;;;;;6118406;23;20045;-80
2023/10/23 05:08:05;;;;;;;24.90;16.80;;;6.10;99.90;;;;;;6119997;23;20045;-80
2023/10/23 05:10:31;;;;;;;27.02;18.23;;;6.10;99.90;;;;;;6141539;23;20442;-80
2023/10/23 05:12:56;;;;;;;30.33;19.17;;;6.00;99.90;;;;;;6118466;23;20043;-80
2023/10/23 05:15:23;;;;;;;25.35;16.48;;;6.00;99.90;;;;;;6118664;23;20020;-80
2023/10/23 05:17:48;;;;;;;20.35;15.57;;;6.00;99.90;;;;;;6144080;23;20025;-80
2023/10/23 05:20:14;;;;;;;21.40;15.68;;;6.00;99.90;;;;;;6121263;23;20067;-80
2023/10/23 05:22:40;;;;;;;22.27;15.10;;;5.90;99.90;;;;;;6150908;23;20031;-80
2023/10/23 05:25:08;;;;;;;23.25;16.35;;;5.80;99.90;;;;;;6170520;23;20020;-80
2023/10/23 05:27:35;;;;;;;21.90;15.18;;;5.90;99.90;;;;;;6172333;23;20055;-80
2023/10/23 05:30:03;;;;;;;20.67;13.73;;;5.80;99.90;;;;;;6199101;23;20012;-80
2023/10/23 05:32:29;;;;;;;18.05;14.23;;;5.80;99.90;;;;;;6200011;23;20417;-80
2023/10/23 05:34:55;;;;;;;15.60;9.85;;;5.80;99.90;;;;;;6199710;23;20016;-80
2023/10/23 05:37:21;;;;;;;23.15;11.48;;;5.80;99.90;;;;;;6200381;23;20429;-80
2023/10/23 05:39:46;;;;;;;21.90;12.15;;;5.80;99.90;;;;;;6173071;23;20176;-81
2023/10/23 05:42:12;;;;;;;20.85;11.88;;;5.70;99.90;;;;;;6200010;23;20394;-80
2023/10/23 05:44:38;;;;;;;17.33;10.52;;;5.80;99.90;;;;;;6200011;23;20014;-80
2023/10/23 05:47:04;;;;;;;18.20;11.57;;;5.80;99.90;;;;;;6175862;23;20013;-80
2023/10/23 05:49:29;;;;;;;15.88;11.00;;;5.70;99.90;;;;;;6201026;23;20418;-80
2023/10/23 05:51:55;;;;;;;17.60;10.73;;;5.70;99.90;;;;;;6175038;23;20072;-81
2023/10/23 05:54:20;;;;;;;15.00;10.20;;;5.70;99.90;;;;;;6200311;23;20523;-80
2023/10/23 05:56:46;;;;;;;15.55;10.18;;;5.70;99.90;;;;;;6172657;23;20418;-80
2023/10/23 05:59:12;;;;;;;15.18;10.10;;;5.60;99.90;;;;;;6175360;23;20019;-80
2023/10/23 06:01:37;;;;;;;15.63;10.35;;;5.60;99.90;;;;;;6200441;23;20214;-80
2023/10/23 06:04:04;;;;;;;15.88;9.95;;;5.60;99.90;;;;;;6200628;23;20004;-80
2023/10/23 06:06:30;;;;;;;16.92;10.90;;;5.60;99.90;;;;;;6175709;23;20055;-80
2023/10/23 06:08:56;;;;;;;15.88;10.85;;;5.60;99.90;;;;;;6176281;23;20008;-80
2023/10/23 06:11:23;;;;;;;17.85;10.02;;;5.60;99.90;;;;;;6198971;23;20008;-80
2023/10/23 06:13:49;;;;;;;14.98;7.97;;;5.60;99.90;;;;;;6203040;23;20051;-80
2023/10/23 06:16:15;;;;;;;13.82;8.50;;;5.60;99.90;;;;;;6202264;23;20335;-80
2023/10/23 06:18:40;;;;;;;13.27;7.88;;;5.60;99.90;;;;;;6203175;23;20005;-80
2023/10/23 06:21:07;;;;;;;19.25;8.57;;;5.60;99.90;;;;;;6176683;23;20017;-80
2023/10/23 06:23:37;;;;;;;12.68;8.15;;;5.60;99.90;;;;;;6176758;23;20024;-80
2023/10/23 06:26:04;;;;;;;13.75;7.97;;;5.70;99.90;;;;;;6197512;23;20017;-80
2023/10/23 06:28:31;;;;;;;14.40;8.15;;;5.60;99.90;;;;;;6200175;23;20334;-80
2023/10/23 06:31:02;;;;;;;12.48;7.25;;;5.60;99.90;;;;;;6199749;23;20434;-81
2023/10/23 06:33:28;;;;;;;16.13;8.20;;;5.70;99.90;;;;;;6175005;23;20016;-80
2023/10/23 06:35:57;;;;;;;14.95;8.68;;;5.60;99.90;;;;;;6199291;23;20074;-80
2023/10/23 06:38:23;;;;;;;15.75;8.98;;;5.70;99.90;;;;;;6200817;23;20026;-80
2023/10/23 06:40:49;;;;;;;15.07;8.77;;;5.70;99.90;;;;;;6196625;23;20021;-80
2023/10/23 06:43:14;;;;;;;14.45;8.10;;;5.80;99.90;;;;;;6200813;23;20413;-80
2023/10/23 06:45:40;;;;;;;13.57;7.75;;;5.80;99.90;;;;;;6199178;23;20086;-80
2023/10/23 06:48:06;;;;;;;12.15;7.78;;;5.80;99.90;;;;;;6174808;23;20067;-80
2023/10/23 06:50:31;;;;;;;12.02;6.97;;;5.80;99.90;;;;;;6199544;23;20016;-80
2023/10/23 06:52:57;;;;;;;10.93;6.43;;;5.80;99.90;;;;;;6199545;23;20855;-80
2023/10/23 06:55:24;;;;;;;9.20;6.45;;;5.90;99.90;;;;;;6171381;23;20055;-80
2023/10/23 06:57:50;;;;;;;13.00;5.43;;;5.80;99.90;;;;;;6199656;23;20660;-80
2023/10/23 07:00:16;;;;;;;12.00;6.47;;;5.70;99.90;;;;;;6199471;23;20196;-80
2023/10/23 07:02:42;;;;;;;12.55;6.97;;;5.70;99.90;;;;;;6174648;23;20020;-80
2023/10/23 07:05:07;;;;;;;57.95;8.85;;;5.80;99.90;;;;;;6173602;23;20024;-80
2023/10/23 07:07:33;;;;;;;11.82;6.30;;;5.80;99.90;;;;;;6174191;23;20009;-80
2023/10/23 07:09:59;;;;;;;11.13;6.38;;;5.90;99.90;;;;;;6171648;23;20017;-80
2023/10/23 07:12:25;;;;;;;11.25;6.50;;;6.00;99.90;;;;;;6173396;23;20086;-80
2023/10/23 07:14:51;;;;;;;10.40;6.50;;;6.00;99.90;;;;;;6199376;23;20414;-80
2023/10/23 07:17:17;;;;;;;11.60;6.82;;;6.10;99.90;;;;;;6199540;23;20020;-80
2023/10/23 07:19:43;;;;;;;14.18;7.22;;;6.10;99.90;;;;;;6198761;23;20027;-80
2023/10/23 07:22:09;;;;;;;12.88;7.20;;;6.20;99.90;;;;;;6198768;23;20012;-80
2023/10/23 07:24:34;;;;;;;15.07;7.07;;;6.30;99.90;;;;;;6173854;23;20082;-80
2023/10/23 07:27:00;;;;;;;13.20;7.70;;;6.40;99.90;;;;;;6172078;23;20164;-80
2023/10/23 07:29:26;;;;;;;13.02;7.30;;;6.50;99.90;;;;;;6174378;23;20017;-81
2023/10/23 07:31:51;;;;;;;12.98;6.70;;;6.60;99.90;;;;;;6198649;23;20406;-80
2023/10/23 07:34:17;;;;;;;11.00;6.78;;;6.60;99.90;;;;;;6174021;23;20397;-80
2023/10/23 07:36:43;;;;;;;10.65;7.05;;;6.70;99.90;;;;;;6198527;23;20021;-80
2023/10/23 07:39:09;;;;;;;11.02;6.68;;;6.80;99.90;;;;;;6199656;23;20453;-81
2023/10/23 07:41:34;;;;;;;10.23;7.10;;;7.00;99.90;;;;;;6195981;23;20011;-80
2023/10/23 07:44:00;;;;;;;11.27;6.80;;;6.90;99.90;;;;;;6199954;23;20009;-80
2023/10/23 07:46:26;;;;;;;14.23;6.15;;;7.00;99.90;;;;;;6198506;23;20008;-81
2023/10/23 07:48:51;;;;;;;10.32;6.25;;;7.10;99.90;;;;;;6199248;23;20016;-81
2023/10/23 07:51:17;;;;;;;11.18;6.93;;;7.20;99.90;;;;;;6197892;23;20039;-81
2023/10/23 07:53:43;;;;;;;11.63;6.80;;;7.40;99.90;;;;;;6199690;23;20471;-81
2023/10/23 07:56:09;;;;;;;10.43;6.78;;;7.50;99.90;;;;;;6195701;23;20262;-81
2023/10/23 07:58:34;;;;;;;13.25;7.10;;;7.60;99.90;;;;;;6200256;23;20358;-80
2023/10/23 08:01:08;;;;;;;15.55;8.30;;;7.70;99.90;;;;;;6172947;23;20558;-80
2023/10/23 08:03:34;;;;;;;14.50;9.55;;;7.80;99.90;;;;;;6199190;23;20012;-80
2023/10/23 08:06:04;;;;;;;18.25;10.50;;;8.00;99.90;;;;;;6198519;23;20473;-81
2023/10/23 08:08:38;;;;;;;18.95;10.45;;;8.20;99.90;;;;;;6199523;23;20016;-80
2023/10/23 08:11:05;;;;;;;16.92;10.52;;;8.20;99.90;;;;;;6170706;23;20021;-81
2023/10/23 08:13:31;;;;;;;16.42;10.45;;;8.30;99.90;;;;;;6198657;23;20083;-80
2023/10/23 08:15:57;;;;;;;18.92;11.93;;;8.40;99.90;;;;;;6173304;23;20016;-81
2023/10/23 08:18:22;;;;;;;17.77;10.60;;;8.60;99.90;;;;;;6174946;23;20022;-81
2023/10/23 08:20:48;;;;;;;19.92;10.73;;;8.60;99.90;;;;;;6198156;23;20135;-81
2023/10/23 08:23:14;;;;;;;17.88;10.85;;;8.80;99.90;;;;;;6199130;23;20013;-81
2023/10/23 08:25:41;;;;;;;18.92;11.10;;;8.90;99.90;;;;;;6170711;23;20043;-81
2023/10/23 08:28:08;;;;;;;17.75;10.82;;;9.00;99.90;;;;;;6199013;23;20031;-81
2023/10/23 08:30:34;;;;;;;19.02;11.45;;;9.20;99.90;;;;;;6173524;23;20020;-81
2023/10/23 08:33:00;;;;;;;17.52;10.63;;;9.30;99.90;;;;;;6198768;23;20438;-81
2023/10/23 08:35:28;;;;;;;23.45;11.52;;;9.30;99.90;;;;;;6172954;23;20043;-81
2023/10/23 08:37:54;;;;;;;20.25;11.20;;;9.40;99.90;;;;;;6199277;23;20021;-81
2023/10/23 08:40:23;;;;;;;17.50;11.80;;;9.60;99.90;;;;;;6170982;23;20017;-81
2023/10/23 08:42:49;;;;;;;19.42;11.40;;;9.60;99.90;;;;;;6173930;23;20013;-81
2023/10/23 08:45:16;;;;;;;21.35;11.38;;;9.70;99.90;;;;;;6198751;23;20013;-81
2023/10/23 08:47:42;;;;;;;22.13;11.05;;;9.80;99.90;;;;;;6174084;23;20098;-81
2023/10/23 08:50:09;;;;;;;20.75;11.65;;;9.90;99.90;;;;;;6173917;23;20020;-81
2023/10/23 08:52:44;;;;;;;22.65;12.93;;;10.00;99.90;;;;;;6199069;23;20019;-81
2023/10/23 08:55:15;;;;;;;20.38;12.88;;;10.20;99.90;;;;;;6196565;23;20403;-81
2023/10/23 08:57:51;;;;;;;18.60;13.10;;;10.30;99.90;;;;;;6173576;23;20016;-81
2023/10/23 09:00:17;;;;;;;22.77;13.40;;;10.30;99.90;;;;;;6173927;23;20015;-81
2023/10/23 09:02:42;;;;;;;21.48;14.13;;;10.50;99.90;;;;;;6174500;23;20008;-81
2023/10/23 09:05:08;;;;;;;20.52;13.80;;;10.60;99.90;;;;;;6198335;23;20024;-81
2023/10/23 09:07:35;;;;;;;19.95;13.35;;;10.80;99.90;;;;;;6173687;23;20417;-81
2023/10/23 09:10:03;;;;;;;21.65;12.95;;;10.90;99.90;;;;;;6171531;23;20590;-81
2023/10/23 09:12:34;;;;;;;20.35;13.18;;;11.00;99.90;;;;;;6173431;23;20035;-81
2023/10/23 09:15:17;;;;;;;17.13;12.68;;;11.00;99.90;;;;;;6173521;23;20171;-81
2023/10/23 09:17:44;;;;;;;20.17;13.13;;;11.00;99.90;;;;;;6198456;23;20021;-81
2023/10/23 09:20:23;;;;;;;21.42;13.13;;;11.20;99.90;;;;;;6198314;23;20028;-81
2023/10/23 09:22:50;;;;;;;18.52;12.85;;;11.30;99.90;;;;;;6198881;23;20024;-81
2023/10/23 09:25:22;;;;;;;17.35;12.35;;;11.50;99.90;;;;;;6170809;23;20021;-81
2023/10/23 09:27:49;;;;;;;22.00;12.80;;;11.60;99.90;;;;;;6173782;23;20044;-81
2023/10/23 09:30:21;;;;;;;17.20;11.75;;;11.70;99.90;;;;;;6173225;23;20108;-81
2023/10/23 09:32:53;;;;;;;18.13;11.60;;;11.50;99.90;;;;;;6173803;23;20019;-81
2023/10/23 09:35:28;;;;;;;19.35;12.30;;;11.80;99.90;;;;;;6174180;23;20428;-81
2023/10/23 09:37:56;;;;;;;17.25;11.88;;;12.00;99.90;;;;;;6174444;23;20438;-81
2023/10/23 09:40:22;;;;;;;17.20;11.13;;;12.10;99.90;;;;;;6171176;23;20013;-81
2023/10/23 09:42:49;;;;;;;18.33;11.70;;;12.00;99.90;;;;;;6198507;23;20005;-81
2023/10/23 09:45:15;;;;;;;16.73;10.20;;;12.20;99.90;;;;;;6174152;23;20108;-80
2023/10/23 09:47:41;;;;;;;16.42;10.82;;;12.30;99.90;;;;;;6200551;23;20383;-81
2023/10/23 09:50:08;;;;;;;15.27;9.55;;;12.40;99.90;;;;;;6176051;23;20524;-81
2023/10/23 09:52:35;;;;;;;15.13;10.02;;;12.60;99.90;;;;;;6200542;23;20116;-81
2023/10/23 09:55:08;;;;;;;20.42;10.27;;;12.60;99.90;;;;;;6173210;23;20028;-81
2023/10/23 09:57:36;;;;;;;12.63;9.45;;;12.70;99.90;;;;;;6176106;23;20068;-81
2023/10/23 10:00:13;;;;;;;16.08;10.38;;;12.80;99.90;;;;;;6199825;23;20013;-81
2023/10/23 10:02:43;;;;;;;17.45;9.25;;;12.90;99.90;;;;;;6200938;23;20016;-81
2023/10/23 10:05:12;;;;;;;12.95;9.00;;;12.80;99.90;;;;;;6201356;23;20504;-81
2023/10/23 10:07:59;;;;;;;12.73;8.75;;;12.80;99.90;;;;;;6201761;23;20012;-82
2023/10/23 10:10:26;;;;;;;14.18;9.35;;;13.00;99.90;;;;;;6174573;23;20016;-82
2023/10/23 10:12:54;;;;;;;12.55;8.52;;;13.10;99.90;;;;;;6176570;23;20454;-81
2023/10/23 10:15:22;;;;;;;13.90;10.05;;;13.30;99.90;;;;;;6201264;23;20032;-81
2023/10/23 10:17:49;;;;;;;14.23;8.98;;;13.30;99.90;;;;;;6202163;23;20017;-80
2023/10/23 10:20:20;;;;;;;11.25;8.27;;;13.30;99.90;;;;;;6201164;23;20107;-81
2023/10/23 10:22:53;;;;;;;10.98;7.75;;;13.20;99.90;;;;;;6202093;23;20278;-81
2023/10/23 10:25:20;;;;;;;10.20;8.43;;;13.30;99.90;;;;;;6199902;23;20464;-81
2023/10/23 10:27:56;;;;;;;11.27;7.63;;;13.50;99.90;;;;;;6201695;23;20013;-81
2023/10/23 10:30:42;;;;;;;10.48;6.68;;;13.40;99.90;;;;;;6202403;23;20317;-81
2023/10/23 10:33:22;;;;;;;10.00;6.65;;;13.40;99.90;;;;;;6202208;23;20012;-81
2023/10/23 10:36:10;;;;;;;9.35;6.65;;;13.50;99.90;;;;;;6201151;23;20075;-80
2023/10/23 10:38:36;;;;;;;8.40;5.90;;;13.50;99.90;;;;;;6177535;23;20020;-81
2023/10/23 10:41:17;;;;;;;10.80;5.47;;;13.40;99.90;;;;;;6198729;23;20395;-81
2023/10/23 10:43:49;;;;;;;6.40;5.05;;;13.60;99.90;;;;;;6202441;23;20012;-81
2023/10/23 10:46:23;;;;;;;5.70;4.18;;;13.60;99.90;;;;;;6176819;23;20489;-81
2023/10/23 10:48:54;;;;;;;7.32;4.57;;;13.70;99.90;;;;;;6202099;23;20017;-81
2023/10/23 10:51:24;;;;;;;5.65;4.40;;;13.70;99.90;;;;;;6176313;23;20096;-81
2023/10/23 10:54:05;;;;;;;6.85;3.78;;;13.80;99.90;;;;;;6202611;23;20016;-81
2023/10/23 10:56:31;;;;;;;4.68;3.42;;;14.00;99.90;;;;;;6198189;23;20017;-81
2023/10/23 10:59:01;;;;;;;5.80;3.33;;;13.90;99.90;;;;;;6202501;23;20476;-81
2023/10/23 11:01:27;;;;;;;7.95;4.38;;;14.00;99.90;;;;;;6201223;23;20017;-81
2023/10/23 11:03:52;;;;;;;7.50;4.97;;;14.10;99.90;;;;;;6202703;23;20013;-81
2023/10/23 11:06:18;;;;;;;9.77;6.30;;;14.30;99.90;;;;;;6176013;23;20491;-81
2023/10/23 11:08:46;;;;;;;9.75;6.63;;;14.30;99.90;;;;;;6201921;23;20117;-81
2023/10/23 11:11:12;;;;;;;9.98;6.75;;;14.40;99.90;;;;;;6199082;23;20421;-81
2023/10/23 11:13:39;;;;;;;7.95;6.20;;;14.50;99.90;;;;;;6176881;23;20447;-82
2023/10/23 11:16:05;;;;;;;7.20;5.30;;;14.40;99.90;;;;;;6175576;23;20461;-81
2023/10/23 11:18:31;;;;;;;9.48;5.65;;;14.60;99.90;;;;;;6201620;23;20016;-81
2023/10/23 11:21:00;;;;;;;7.57;5.47;;;14.70;99.90;;;;;;6200158;23;20009;-81
2023/10/23 11:23:30;;;;;;;7.32;5.10;;;14.70;99.90;;;;;;6200141;23;20024;-81
2023/10/23 11:25:56;;;;;;;8.75;5.38;;;14.80;99.90;;;;;;6198069;23;20288;-81
2023/10/23 11:28:22;;;;;;;8.75;4.90;;;14.80;99.90;;;;;;6175790;23;20123;-81
2023/10/23 11:30:53;;;;;;;7.38;5.38;;;14.80;99.90;;;;;;6201287;23;20024;-81
2023/10/23 11:33:19;;;;;;;6.82;4.78;;;14.90;99.90;;;;;;6201027;23;20493;-81
2023/10/23 11:35:45;;;;;;;9.73;5.45;;;14.90;99.90;;;;;;6199780;23;20104;-81
2023/10/23 11:38:21;;;;;;;8.88;4.85;;;14.90;99.90;;;;;;6175591;23;20020;-81
2023/10/23 11:40:47;;;;;;;6.15;4.20;;;14.90;99.90;;;;;;6197897;23;20024;-81
2023/10/23 11:43:17;;;;;;;7.22;4.53;;;15.10;99.90;;;;;;6200927;23;20206;-81
2023/10/23 11:45:45;;;;;;;5.93;4.90;;;15.20;99.90;;;;;;6226446;23;20047;-81
2023/10/23 11:48:14;;;;;;;5.93;4.63;;;14.90;99.90;;;;;;6201358;23;20016;-81
2023/10/23 11:50:41;;;;;;;6.95;5.05;;;14.90;99.90;;;;;;6174790;23;20017;-81
2023/10/23 11:53:07;;;;;;;8.15;6.13;;;15.00;99.90;;;;;;6200871;23;20004;-81
2023/10/23 11:55:34;;;;;;;11.20;6.78;;;14.90;99.90;;;;;;6197947;23;20143;-81
2023/10/23 11:58:02;;;;;;;9.15;5.97;;;15.10;99.90;;;;;;6175604;23;20019;-81
2023/10/23 12:00:32;;;;;;;7.60;5.88;;;15.10;99.90;;;;;;6200686;23;20017;-81
2023/10/23 12:02:58;;;;;;;7.75;5.63;;;14.90;99.90;;;;;;6200998;23;20013;-81
2023/10/23 12:05:24;;;;;;;7.93;5.40;;;15.00;99.90;;;;;;6200187;23;20026;-81
2023/10/23 12:07:54;;;;;;;7.88;5.20;;;15.00;99.90;;;;;;6200418;23;20055;-82
2023/10/23 12:10:22;;;;;;;8.23;4.68;;;14.80;99.90;;;;;;6173241;23;20350;-81
2023/10/23 12:12:48;;;;;;;8.60;5.40;;;14.90;99.90;;;;;;6200539;23;20251;-81
2023/10/23 12:15:15;;;;;;;8.20;5.05;;;15.10;99.90;;;;;;6175150;23;20135;-81
2023/10/23 12:17:41;;;;;;;6.95;5.22;;;15.00;99.90;;;;;;6200619;23;20078;-81
2023/10/23 12:20:09;;;;;;;7.32;5.47;;;14.90;99.90;;;;;;6225685;23;20016;-81
2023/10/23 12:22:45;;;;;;;8.93;5.82;;;15.00;99.90;;;;;;6200492;23;20036;-81
2023/10/23 12:25:16;;;;;;;8.57;5.97;;;14.60;99.90;;;;;;6173367;23;20321;-81
2023/10/23 12:27:42;;;;;;;8.55;6.35;;;14.70;99.90;;;;;;6200481;23;20012;-81
2023/10/23 12:30:10;;;;;;;9.15;5.72;;;14.60;99.90;;;;;;6174745;23;20083;-81
2023/10/23 12:32:36;;;;;;;9.88;5.57;;;14.60;99.90;;;;;;6200496;23;20020;-81
2023/10/23 12:35:05;;;;;;;7.75;5.40;;;14.70;99.90;;;;;;6199689;23;20020;-81
2023/10/23 12:37:31;;;;;;;7.05;5.28;;;14.80;99.90;;;;;;6201069;23;20048;-81
2023/10/23 12:40:00;;;;;;;6.72;5.28;;;14.80;99.90;;;;;;6197391;23;20020;-82